sensor_id;sensor_type;location;lat;lon;timestamp;pressure;altitude;pressure_sealevel;temperature;humidity
41636;BME280;27623;51.966;4.602;2023-01-16T00:01:02;63689.59;;;4.54;100.00
41636;BME280;27623;51.966;4.602;2023-01-16T00:03:28;63697.16;;;4.54;100.00
41636;BME280;27623;51.966;4.602;2023-01-16T00:05:53;63712.63;;;4.52;100.00
41636;BME280;27623;51.966;4.602;2023-01-16T00:08:19;63725.44;;;4.54;100.00
41636;BME280;27623;51.966;4.602;2023-01-16T00:10:47;63674.22;;;4.44;100.00
41636;BME280;27623;51.966;4.602;2023-01-16T00:13:13;63730.50;;;4.61;100.00
41636;BME280;27623;51.966;4.602;2023-01-16T00:15:45;63693.56;;;4.67;100.00
41636;BME280;27623;51.966;4.602;2023-01-16T00:18:11;63712.09;;;4.58;100.00
41636;BME280;27623;51.966;4.602;2023-01-16T00:20:36;63709.63;;;4.72;100.00
41636;BME280;27623;51.966;4.602;2023-01-16T00:23:02;63721.50;;;4.62;100.00
41636;BME280;27623;51.966;4.602;2023-01-16T00:25:30;63684.31;;;4.44;100.00
41636;BME280;27623;51.966;4.602;2023-01-16T00:27:55;63680.13;;;4.28;100.00
41636;BME280;27623;51.966;4.602;2023-01-16T00:30:23;63685.38;;;4.31;100.00
41636;BME280;27623;51.966;4.602;2023-01-16T00:32:53;63730.63;;;4.42;100.00
41636;BME280;27623;51.966;4.602;2023-01-16T00:35:19;63703.22;;;4.33;100.00
41636;BME280;27623;51.966;4.602;2023-01-16T00:37:45;63688.78;;;4.29;100.00
41636;BME280;27623;51.966;4.602;2023-01-16T00:40:11;63683.38;;;4.24;100.00
41636;BME280;27623;51.966;4.602;2023-01-16T00:42:38;63660.28;;;4.19;100.00
41636;BME280;27623;51.966;4.602;2023-01-16T00:45:04;63670.75;;;4.24;100.00
41636;BME280;27623;51.966;4.602;2023-01-16T00:47:30;63640.69;;;4.27;100.00
41636;BME280;27623;51.966;4.602;2023-01-16T00:49:55;63680.53;;;4.40;100.00
41636;BME280;27623;51.966;4.602;2023-01-16T00:52:21;63694.88;;;4.23;100.00
41636;BME280;27623;51.966;4.602;2023-01-16T00:54:49;63654.00;;;4.16;100.00
41636;BME280;27623;51.966;4.602;2023-01-16T00:57:14;63719.41;;;4.27;100.00
41636;BME280;27623;51.966;4.602;2023-01-16T00:59:40;63666.44;;;4.27;100.00
41636;BME280;27623;51.966;4.602;2023-01-16T01:02:07;63683.16;;;4.22;100.00
41636;BME280;27623;51.966;4.602;2023-01-16T01:04:35;63644.97;;;4.17;100.00
41636;BME280;27623;51.966;4.602;2023-01-16T01:07:04;63671.31;;;4.25;100.00
41636;BME280;27623;51.966;4.602;2023-01-16T01:09:30;63671.47;;;4.20;100.00
41636;BME280;27623;51.966;4.602;2023-01-16T01:11:57;63646.78;;;4.21;100.00
41636;BME280;27623;51.966;4.602;2023-01-16T01:14:26;63690.03;;;4.26;100.00
41636;BME280;27623;51.966;4.602;2023-01-16T01:16:54;63682.09;;;4.21;100.00
41636;BME280;27623;51.966;4.602;2023-01-16T01:19:22;63669.50;;;4.28;100.00
41636;BME280;27623;51.966;4.602;2023-01-16T01:21:47;63679.97;;;4.33;100.00
41636;BME280;27623;51.966;4.602;2023-01-16T01:24:15;63694.03;;;4.32;100.00
41636;BME280;27623;51.966;4.602;2023-01-16T01:26:41;63637.06;;;4.19;100.00
41636;BME280;27623;51.966;4.602;2023-01-16T01:29:06;63668.63;;;4.29;100.00
41636;BME280;27623;51.966;4.602;2023-01-16T01:31:34;63691.16;;;4.34;100.00
41636;BME280;27623;51.966;4.602;2023-01-16T01:34:00;63684.25;;;4.23;100.00
41636;BME280;27623;51.966;4.602;2023-01-16T01:36:28;63698.31;;;4.22;100.00
41636;BME280;27623;51.966;4.602;2023-01-16T01:38:53;63678.47;;;4.12;100.00
41636;BME280;27623;51.966;4.602;2023-01-16T01:41:19;63682.97;;;4.12;100.00
41636;BME280;27623;51.966;4.602;2023-01-16T01:43:46;63676.47;;;4.06;100.00
41636;BME280;27623;51.966;4.602;2023-01-16T01:46:42;63704.75;;;4.13;100.00
41636;BME280;27623;51.966;4.602;2023-01-16T01:49:23;63647.88;;;4.22;100.00
41636;BME280;27623;51.966;4.602;2023-01-16T01:51:50;63673.09;;;4.22;100.00
41636;BME280;27623;51.966;4.602;2023-01-16T01:54:22;63665.69;;;4.17;100.00
41636;BME280;27623;51.966;4.602;2023-01-16T01:57:11;63687.84;;;4.17;100.00
41636;BME280;27623;51.966;4.602;2023-01-16T01:59:43;63663.72;;;4.18;100.00
41636;BME280;27623;51.966;4.602;2023-01-16T02:02:13;63694.69;;;4.13;100.00
41636;BME280;27623;51.966;4.602;2023-01-16T02:04:45;63652.72;;;4.19;100.00
41636;BME280;27623;51.966;4.602;2023-01-16T02:07:14;63654.72;;;4.19;100.00
41636;BME280;27623;51.966;4.602;2023-01-16T02:09:42;63710.56;;;4.24;100.00
41636;BME280;27623;51.966;4.602;2023-01-16T02:12:14;63696.91;;;4.37;100.00
41636;BME280;27623;51.966;4.602;2023-01-16T02:14:42;63685.72;;;4.29;100.00
41636;BME280;27623;51.966;4.602;2023-01-16T02:17:14;63685.88;;;4.24;100.00
41636;BME280;27623;51.966;4.602;2023-01-16T02:20:18;63688.03;;;4.19;100.00
41636;BME280;27623;51.966;4.602;2023-01-16T02:39:29;63685.34;;;4.24;100.00
41636;BME280;27623;51.966;4.602;2023-01-16T02:50:20;63672.22;;;4.37;100.00
41636;BME280;27623;51.966;4.602;2023-01-16T02:55:32;63704.53;;;4.51;100.00
41636;BME280;27623;51.966;4.602;2023-01-16T02:58:01;63706.69;;;4.60;100.00
41636;BME280;27623;51.966;4.602;2023-01-16T03:00:29;63711.03;;;4.64;100.00
41636;BME280;27623;51.966;4.602;2023-01-16T03:02:55;63738.41;;;4.59;100.00
41636;BME280;27623;51.966;4.602;2023-01-16T03:05:22;63702.53;;;4.44;100.00
41636;BME280;27623;51.966;4.602;2023-01-16T03:08:09;63697.63;;;4.40;100.00
41636;BME280;27623;51.966;4.602;2023-01-16T03:16:36;63684.47;;;4.39;100.00
41636;BME280;27623;51.966;4.602;2023-01-16T03:19:27;63714.97;;;4.49;100.00
41636;BME280;27623;51.966;4.602;2023-01-16T03:22:17;63701.44;;;4.36;100.00
41636;BME280;27623;51.966;4.602;2023-01-16T03:29:53;63655.50;;;4.36;100.00
41636;BME280;27623;51.966;4.602;2023-01-16T03:32:30;63687.38;;;4.44;100.00
41636;BME280;27623;51.966;4.602;2023-01-16T03:37:36;63714.09;;;4.58;100.00
41636;BME280;27623;51.966;4.602;2023-01-16T03:40:08;63688.81;;;4.43;100.00
41636;BME280;27623;51.966;4.602;2023-01-16T03:42:41;63704.91;;;4.56;100.00
41636;BME280;27623;51.966;4.602;2023-01-16T03:45:16;63702.53;;;4.44;100.00
41636;BME280;27623;51.966;4.602;2023-01-16T03:47:50;63716.44;;;4.55;100.00
41636;BME280;27623;51.966;4.602;2023-01-16T03:50:19;63741.31;;;4.64;100.00
41636;BME280;27623;51.966;4.602;2023-01-16T03:52:57;63724.75;;;4.65;100.00
41636;BME280;27623;51.966;4.602;2023-01-16T03:55:33;63706.19;;;4.67;100.00
41636;BME280;27623;51.966;4.602;2023-01-16T03:58:13;63665.19;;;4.38;100.00
41636;BME280;27623;51.966;4.602;2023-01-16T04:00:59;63699.25;;;4.41;100.00
41636;BME280;27623;51.966;4.602;2023-01-16T04:03:37;63710.97;;;4.43;100.00
41636;BME280;27623;51.966;4.602;2023-01-16T04:06:13;63717.63;;;4.37;100.00
41636;BME280;27623;51.966;4.602;2023-01-16T04:08:45;63688.09;;;4.40;100.00
41636;BME280;27623;51.966;4.602;2023-01-16T04:11:12;63691.88;;;4.44;100.00
41636;BME280;27623;51.966;4.602;2023-01-16T04:13:41;63703.97;;;4.43;100.00
41636;BME280;27623;51.966;4.602;2023-01-16T04:16:12;63715.16;;;4.52;100.00
41636;BME280;27623;51.966;4.602;2023-01-16T04:18:40;63676.22;;;4.43;100.00
41636;BME280;27623;51.966;4.602;2023-01-16T04:21:08;63699.31;;;4.56;100.00
41636;BME280;27623;51.966;4.602;2023-01-16T04:23:36;63670.22;;;4.24;100.00
41636;BME280;27623;51.966;4.602;2023-01-16T04:26:02;63687.72;;;4.35;100.00
41636;BME280;27623;51.966;4.602;2023-01-16T04:28:27;63680.72;;;4.36;100.00
41636;BME280;27623;51.966;4.602;2023-01-16T04:30:53;63711.16;;;4.38;100.00
41636;BME280;27623;51.966;4.602;2023-01-16T04:33:19;63703.97;;;4.43;100.00
41636;BME280;27623;51.966;4.602;2023-01-16T04:35:45;63682.50;;;4.33;100.00
41636;BME280;27623;51.966;4.602;2023-01-16T04:38:13;63711.47;;;4.29;100.00
41636;BME280;27623;51.966;4.602;2023-01-16T04:40:39;63659.06;;;4.30;100.00
41636;BME280;27623;51.966;4.602;2023-01-16T04:43:04;63683.69;;;4.08;100.00
41636;BME280;27623;51.966;4.602;2023-01-16T04:45:30;63650.38;;;4.14;100.00
41636;BME280;27623;51.966;4.602;2023-01-16T04:47:55;63686.78;;;4.23;100.00
41636;BME280;27623;51.966;4.602;2023-01-16T04:50:21;63708.28;;;4.40;100.00
41636;BME280;27623;51.966;4.602;2023-01-16T04:52:46;63687.91;;;4.31;100.00
41636;BME280;27623;51.966;4.602;2023-01-16T04:55:13;63721.22;;;4.38;100.00
41636;BME280;27623;51.966;4.602;2023-01-16T04:57:38;63672.16;;;4.16;100.00
41636;BME280;27623;51.966;4.602;2023-01-16T05:00:06;63663.34;;;4.20;100.00
41636;BME280;27623;51.966;4.602;2023-01-16T05:02:32;63679.22;;;4.23;100.00
41636;BME280;27623;51.966;4.602;2023-01-16T05:04:58;63704.28;;;4.27;100.00
41636;BME280;27623;51.966;4.602;2023-01-16T05:07:24;63688.75;;;4.15;100.00
41636;BME280;27623;51.966;4.602;2023-01-16T05:09:52;63684.41;;;4.18;100.00
41636;BME280;27623;51.966;4.602;2023-01-16T05:12:18;63705.94;;;4.36;100.00
41636;BME280;27623;51.966;4.602;2023-01-16T05:14:43;63700.69;;;4.40;100.00
41636;BME280;27623;51.966;4.602;2023-01-16T05:17:09;63676.00;;;4.27;100.00
41636;BME280;27623;51.966;4.602;2023-01-16T05:19:35;63690.41;;;4.38;100.00
41636;BME280;27623;51.966;4.602;2023-01-16T05:22:00;63668.44;;;4.27;100.00
41636;BME280;27623;51.966;4.602;2023-01-16T05:24:26;63693.66;;;4.34;100.00
41636;BME280;27623;51.966;4.602;2023-01-16T05:26:52;63686.78;;;4.23;100.00
41636;BME280;27623;51.966;4.602;2023-01-16T05:29:17;63696.34;;;4.29;100.00
41636;BME280;27623;51.966;4.602;2023-01-16T05:31:42;63708.06;;;4.38;100.00
41636;BME280;27623;51.966;4.602;2023-01-16T05:34:11;63719.44;;;4.41;100.00
41636;BME280;27623;51.966;4.602;2023-01-16T05:36:37;63709.00;;;4.36;100.00
41636;BME280;27623;51.966;4.602;2023-01-16T05:39:03;63667.19;;;4.30;100.00
41636;BME280;27623;51.966;4.602;2023-01-16T05:41:28;63718.16;;;4.38;100.00
41636;BME280;27623;51.966;4.602;2023-01-16T05:43:54;63704.31;;;4.41;100.00
41636;BME280;27623;51.966;4.602;2023-01-16T05:46:23;63718.75;;;4.45;100.00
41636;BME280;27623;51.966;4.602;2023-01-16T05:48:49;63692.47;;;4.52;100.00
41636;BME280;27623;51.966;4.602;2023-01-16T05:51:14;63725.06;;;4.49;100.00
41636;BME280;27623;51.966;4.602;2023-01-16T05:53:41;63706.47;;;4.43;100.00
41636;BME280;27623;51.966;4.602;2023-01-16T05:56:11;63707.56;;;4.44;100.00
41636;BME280;27623;51.966;4.602;2023-01-16T05:58:39;63724.53;;;4.56;100.00
41636;BME280;27623;51.966;4.602;2023-01-16T06:01:04;63698.38;;;4.43;100.00
41636;BME280;27623;51.966;4.602;2023-01-16T06:03:32;63709.72;;;4.46;100.00
41636;BME280;27623;51.966;4.602;2023-01-16T06:05:57;63706.09;;;4.38;100.00
41636;BME280;27623;51.966;4.602;2023-01-16T06:08:26;63695.09;;;4.33;100.00
41636;BME280;27623;51.966;4.602;2023-01-16T06:10:52;63693.31;;;4.36;100.00
41636;BME280;27623;51.966;4.602;2023-01-16T06:13:19;63684.47;;;4.39;100.00
41636;BME280;27623;51.966;4.602;2023-01-16T06:15:44;63727.97;;;4.54;100.00
41636;BME280;27623;51.966;4.602;2023-01-16T06:18:12;63732.47;;;4.61;100.00
41636;BME280;27623;51.966;4.602;2023-01-16T06:20:39;63741.47;;;4.53;100.00
41636;BME280;27623;51.966;4.602;2023-01-16T06:23:05;63728.69;;;4.57;100.00
41636;BME280;27623;51.966;4.602;2023-01-16T06:25:30;63733.22;;;4.64;100.00
41636;BME280;27623;51.966;4.602;2023-01-16T06:27:56;63715.72;;;4.59;100.00
41636;BME280;27623;51.966;4.602;2023-01-16T06:30:21;63743.09;;;4.54;100.00
41636;BME280;27623;51.966;4.602;2023-01-16T06:32:47;63729.75;;;4.58;100.00
41636;BME280;27623;51.966;4.602;2023-01-16T06:35:17;63725.09;;;4.63;100.00
41636;BME280;27623;51.966;4.602;2023-01-16T06:37:45;63726.03;;;4.69;100.00
41636;BME280;27623;51.966;4.602;2023-01-16T06:40:10;63772.38;;;4.74;100.00
41636;BME280;27623;51.966;4.602;2023-01-16T06:42:36;63751.59;;;4.67;100.00
41636;BME280;27623;51.966;4.602;2023-01-16T06:45:01;63720.59;;;4.64;100.00
41636;BME280;27623;51.966;4.602;2023-01-16T06:47:29;63756.66;;;4.67;100.00
41636;BME280;27623;51.966;4.602;2023-01-16T06:49:56;63711.19;;;4.53;100.00
41636;BME280;27623;51.966;4.602;2023-01-16T06:52:22;63723.47;;;4.55;100.00
41636;BME280;27623;51.966;4.602;2023-01-16T06:54:47;63729.41;;;4.60;100.00
41636;BME280;27623;51.966;4.602;2023-01-16T06:57:13;63741.31;;;4.64;100.00
41636;BME280;27623;51.966;4.602;2023-01-16T06:59:43;63706.66;;;4.46;100.00
41636;BME280;27623;51.966;4.602;2023-01-16T07:02:09;63704.56;;;4.65;100.00
41636;BME280;27623;51.966;4.602;2023-01-16T07:04:37;63724.75;;;4.65;100.00
41636;BME280;27623;51.966;4.602;2023-01-16T07:07:02;63754.34;;;4.76;100.00
41636;BME280;27623;51.966;4.602;2023-01-16T07:09:28;63735.53;;;4.61;100.00
41636;BME280;27623;51.966;4.602;2023-01-16T07:11:56;63737.91;;;4.66;100.00
41636;BME280;27623;51.966;4.602;2023-01-16T07:14:21;63741.88;;;4.72;100.00
41636;BME280;27623;51.966;4.602;2023-01-16T07:17:05;63723.50;;;4.69;100.00
41636;BME280;27623;51.966;4.602;2023-01-16T07:19:49;63752.19;;;4.74;100.00
41636;BME280;27623;51.966;4.602;2023-01-16T07:22:34;63742.09;;;4.81;100.00
41636;BME280;27623;51.966;4.602;2023-01-16T07:25:03;63732.19;;;4.84;100.00
41636;BME280;27623;51.966;4.602;2023-01-16T07:27:33;63739.75;;;4.77;100.00
41636;BME280;27623;51.966;4.602;2023-01-16T07:29:59;63751.63;;;4.74;100.00
41636;BME280;27623;51.966;4.602;2023-01-16T07:32:25;63751.63;;;4.74;100.00
41636;BME280;27623;51.966;4.602;2023-01-16T07:34:52;63787.16;;;4.83;100.00
41636;BME280;27623;51.966;4.602;2023-01-16T07:37:20;63729.09;;;4.76;100.00
41636;BME280;27623;51.966;4.602;2023-01-16T07:39:48;63724.97;;;4.75;100.00
41636;BME280;27623;51.966;4.602;2023-01-16T07:42:13;63740.63;;;4.75;100.00
41636;BME280;27623;51.966;4.602;2023-01-16T07:44:41;63764.06;;;4.78;100.00
41636;BME280;27623;51.966;4.602;2023-01-16T07:47:07;63750.38;;;4.77;100.00
41636;BME280;27623;51.966;4.602;2023-01-16T07:49:33;63730.16;;;4.70;100.00
41636;BME280;27623;51.966;4.602;2023-01-16T07:51:59;63726.03;;;4.76;100.00
41636;BME280;27623;51.966;4.602;2023-01-16T07:54:25;63770.59;;;4.84;100.00
41636;BME280;27623;51.966;4.602;2023-01-16T07:56:53;63743.88;;;4.78;100.00
41636;BME280;27623;51.966;4.602;2023-01-16T07:59:19;63739.03;;;4.81;100.00
41636;BME280;27623;51.966;4.602;2023-01-16T08:01:44;63760.28;;;4.75;100.00
41636;BME280;27623;51.966;4.602;2023-01-16T08:04:14;63743.34;;;4.78;100.00
41636;BME280;27623;51.966;4.602;2023-01-16T08:06:40;63749.50;;;4.86;100.00
41636;BME280;27623;51.966;4.602;2023-01-16T08:09:11;63762.28;;;4.81;100.00
41636;BME280;27623;51.966;4.602;2023-01-16T08:11:36;63719.22;;;4.86;100.00
41636;BME280;27623;51.966;4.602;2023-01-16T08:14:06;63748.22;;;4.75;100.00
41636;BME280;27623;51.966;4.602;2023-01-16T08:16:33;63721.91;;;4.74;100.00
41636;BME280;27623;51.966;4.602;2023-01-16T08:19:01;63739.53;;;4.67;100.00
41636;BME280;27623;51.966;4.602;2023-01-16T08:21:27;63774.53;;;4.76;100.00
41636;BME280;27623;51.966;4.602;2023-01-16T08:23:55;63731.28;;;4.86;100.00
41636;BME280;27623;51.966;4.602;2023-01-16T08:26:23;63734.34;;;4.86;100.00
41636;BME280;27623;51.966;4.602;2023-01-16T08:28:49;63738.44;;;4.66;100.00
41636;BME280;27623;51.966;4.602;2023-01-16T08:31:17;63723.53;;;4.76;100.00
41636;BME280;27623;51.966;4.602;2023-01-16T08:33:43;63776.31;;;4.73;100.00
41636;BME280;27623;51.966;4.602;2023-01-16T08:36:12;63763.00;;;4.84;100.00
41636;BME280;27623;51.966;4.602;2023-01-16T08:38:40;63765.34;;;4.75;100.00
41636;BME280;27623;51.966;4.602;2023-01-16T08:41:05;63728.03;;;4.75;100.00
41636;BME280;27623;51.966;4.602;2023-01-16T08:43:58;63741.53;;;4.81;100.00
41636;BME280;27623;51.966;4.602;2023-01-16T08:46:44;63746.06;;;4.80;100.00
41636;BME280;27623;51.966;4.602;2023-01-16T08:49:30;63749.47;;;4.79;100.00
41636;BME280;27623;51.966;4.602;2023-01-16T08:52:14;63769.63;;;4.65;100.00
41636;BME280;27623;51.966;4.602;2023-01-16T08:54:42;63733.59;;;4.69;100.00
41636;BME280;27623;51.966;4.602;2023-01-16T08:57:08;63745.66;;;4.68;100.00
41636;BME280;27623;51.966;4.602;2023-01-16T08:59:35;63741.38;;;4.86;100.00
41636;BME280;27623;51.966;4.602;2023-01-16T09:02:01;63753.41;;;4.71;100.00
41636;BME280;27623;51.966;4.602;2023-01-16T09:04:28;63715.03;;;4.70;100.00
41636;BME280;27623;51.966;4.602;2023-01-16T09:06:58;63763.00;;;4.77;100.00
41636;BME280;27623;51.966;4.602;2023-01-16T09:09:23;63737.22;;;4.77;100.00
41636;BME280;27623;51.966;4.602;2023-01-16T09:11:54;63763.56;;;4.85;100.00
41636;BME280;27623;51.966;4.602;2023-01-16T09:14:38;63745.34;;;4.77;100.00
41636;BME280;27623;51.966;4.602;2023-01-16T09:17:04;63746.41;;;4.78;100.00
41636;BME280;27623;51.966;4.602;2023-01-16T09:19:33;63745.34;;;4.77;100.00
41636;BME280;27623;51.966;4.602;2023-01-16T09:21:59;63780.13;;;4.84;100.00
41636;BME280;27623;51.966;4.602;2023-01-16T09:24:24;63749.47;;;4.79;100.00
41636;BME280;27623;51.966;4.602;2023-01-16T09:26:50;63768.00;;;4.63;100.00
41636;BME280;27623;51.966;4.602;2023-01-16T09:29:15;63760.97;;;4.64;100.00
41636;BME280;27623;51.966;4.602;2023-01-16T09:31:41;63745.16;;;4.75;100.00
41636;BME280;27623;51.966;4.602;2023-01-16T09:34:09;63735.94;;;4.73;100.00
41636;BME280;27623;51.966;4.602;2023-01-16T09:36:37;63724.59;;;4.70;100.00
41636;BME280;27623;51.966;4.602;2023-01-16T09:39:02;63757.97;;;4.77;100.00
41636;BME280;27623;51.966;4.602;2023-01-16T09:41:35;63761.03;;;4.85;100.00
41636;BME280;27623;51.966;4.602;2023-01-16T09:44:24;63754.53;;;4.86;100.00
41636;BME280;27623;51.966;4.602;2023-01-16T09:46:53;63756.75;;;4.95;100.00
41636;BME280;27623;51.966;4.602;2023-01-16T09:49:26;63756.56;;;4.93;100.00
41636;BME280;27623;51.966;4.602;2023-01-16T09:52:00;63771.53;;;4.97;100.00
41636;BME280;27623;51.966;4.602;2023-01-16T09:54:52;63787.03;;;4.95;100.00
41636;BME280;27623;51.966;4.602;2023-01-16T09:57:38;63773.13;;;4.92;100.00
41636;BME280;27623;51.966;4.602;2023-01-16T10:00:29;63737.25;;;4.91;100.00
41636;BME280;27623;51.966;4.602;2023-01-16T10:02:58;63771.28;;;4.80;100.00
41636;BME280;27623;51.966;4.602;2023-01-16T10:05:34;63748.59;;;4.88;100.00
41636;BME280;27623;51.966;4.602;2023-01-16T10:08:10;63767.16;;;4.86;100.00
41636;BME280;27623;51.966;4.602;2023-01-16T10:10:46;63767.72;;;4.87;100.00
41636;BME280;27623;51.966;4.602;2023-01-16T10:13:39;63772.06;;;4.91;100.00
41636;BME280;27623;51.966;4.602;2023-01-16T10:16:17;63795.16;;;4.96;100.00
41636;BME280;27623;51.966;4.602;2023-01-16T10:27:32;63790.66;;;5.03;100.00
41636;BME280;27623;51.966;4.602;2023-01-16T10:30:19;63767.94;;;5.03;100.00
41636;BME280;27623;51.966;4.602;2023-01-16T10:35:34;63763.22;;;5.01;100.00
41636;BME280;27623;51.966;4.602;2023-01-16T10:38:19;63839.03;;;5.15;100.00
41636;BME280;27623;51.966;4.602;2023-01-16T10:40:50;63765.97;;;5.11;100.00
41636;BME280;27623;51.966;4.602;2023-01-16T10:43:32;63794.47;;;5.07;100.00
41636;BME280;27623;51.966;4.602;2023-01-16T10:46:19;63812.34;;;5.16;100.00
41636;BME280;27623;51.966;4.602;2023-01-16T10:49:03;63785.81;;;5.13;100.00
41636;BME280;27623;51.966;4.602;2023-01-16T10:51:48;63772.81;;;5.08;100.00
41636;BME280;27623;51.966;4.602;2023-01-16T10:54:15;63807.50;;;5.19;100.00
41636;BME280;27623;51.966;4.602;2023-01-16T10:56:41;63797.59;;;5.29;100.00
41636;BME280;27623;51.966;4.602;2023-01-16T10:59:09;63819.25;;;5.35;100.00
41636;BME280;27623;51.966;4.602;2023-01-16T11:01:39;63803.38;;;5.32;100.00
41636;BME280;27623;51.966;4.602;2023-01-16T11:04:11;63835.13;;;5.31;100.00
41636;BME280;27623;51.966;4.602;2023-01-16T11:06:42;63832.44;;;5.35;100.00
41636;BME280;27623;51.966;4.602;2023-01-16T11:09:18;63832.97;;;5.43;100.00
41636;BME280;27623;51.966;4.602;2023-01-16T11:11:44;63839.88;;;5.54;100.00
41636;BME280;27623;51.966;4.602;2023-01-16T11:14:32;63852.16;;;5.56;100.00
41636;BME280;27623;51.966;4.602;2023-01-16T11:20:02;63806.50;;;5.61;100.00
41636;BME280;27623;51.966;4.602;2023-01-16T11:22:28;63876.03;;;5.78;100.00
41636;BME280;27623;51.966;4.602;2023-01-16T11:24:57;63859.28;;;5.91;100.00
41636;BME280;27623;51.966;4.602;2023-01-16T11:27:25;63875.16;;;5.87;100.00
41636;BME280;27623;51.966;4.602;2023-01-16T11:29:55;63883.13;;;5.92;100.00
41636;BME280;27623;51.966;4.602;2023-01-16T11:32:24;63897.03;;;5.89;100.00
41636;BME280;27623;51.966;4.602;2023-01-16T11:34:55;63842.50;;;5.90;100.00
41636;BME280;27623;51.966;4.602;2023-01-16T11:37:24;63885.25;;;5.87;100.00
41636;BME280;27623;51.966;4.602;2023-01-16T11:39:53;63929.94;;;5.96;100.00
41636;BME280;27623;51.966;4.602;2023-01-16T11:42:19;63882.19;;;5.86;100.00
41636;BME280;27623;51.966;4.602;2023-01-16T11:45:22;63872.06;;;5.79;100.00
41636;BME280;27623;51.966;4.602;2023-01-16T11:48:08;63868.09;;;5.73;100.00
41636;BME280;27623;51.966;4.602;2023-01-16T11:50:55;63855.25;;;5.71;100.00
41636;BME280;27623;51.966;4.602;2023-01-16T11:53:21;63859.59;;;5.75;100.00
41636;BME280;27623;51.966;4.602;2023-01-16T12:01:29;63894.50;;;5.89;100.00
41636;BME280;27623;51.966;4.602;2023-01-16T12:04:23;63882.81;;;6.08;100.00
41636;BME280;27623;51.966;4.602;2023-01-16T12:07:09;63937.00;;;6.02;100.00
41636;BME280;27623;51.966;4.602;2023-01-16T12:09:59;63855.88;;;5.93;100.00
41636;BME280;27623;51.966;4.602;2023-01-16T12:12:33;63812.66;;;5.83;100.00
41636;BME280;27623;51.966;4.602;2023-01-16T12:15:37;63879.19;;;6.00;100.00
41636;BME280;27623;51.966;4.602;2023-01-16T12:21:16;63902.50;;;6.08;100.00
41636;BME280;27623;51.966;4.602;2023-01-16T12:24:05;63878.63;;;6.00;100.00
41636;BME280;27623;51.966;4.602;2023-01-16T12:26:51;63912.28;;;6.24;100.00
41636;BME280;27623;51.966;4.602;2023-01-16T12:29:47;63889.50;;;6.17;100.00
41636;BME280;27623;51.966;4.602;2023-01-16T12:32:32;63916.97;;;6.26;100.00
41636;BME280;27623;51.966;4.602;2023-01-16T12:41:00;63845.75;;;6.07;100.00
41636;BME280;27623;51.966;4.602;2023-01-16T12:46:50;63936.47;;;6.16;100.00
41636;BME280;27623;51.966;4.602;2023-01-16T12:49:33;63910.78;;;6.04;100.00
41636;BME280;27623;51.966;4.602;2023-01-16T12:52:32;63882.63;;;6.06;100.00
41636;BME280;27623;51.966;4.602;2023-01-16T12:55:26;63890.75;;;6.06;100.00
41636;BME280;27623;51.966;4.602;2023-01-16T13:00:40;63876.13;;;6.07;100.00
41636;BME280;27623;51.966;4.602;2023-01-16T13:05:43;63872.28;;;5.89;100.00
41636;BME280;27623;51.966;4.602;2023-01-16T13:08:49;63784.47;;;5.57;100.00
41636;BME280;27623;51.966;4.602;2023-01-16T13:11:30;63917.03;;;5.86;100.00
41636;BME280;27623;51.966;4.602;2023-01-16T13:14:15;63877.72;;;5.94;100.00
41636;BME280;27623;51.966;4.602;2023-01-16T13:17:24;63899.78;;;6.05;100.00
41636;BME280;27623;51.966;4.602;2023-01-16T13:19:51;63906.28;;;6.11;100.00
41636;BME280;27623;51.966;4.602;2023-01-16T13:22:35;63871.41;;;6.05;100.00
41636;BME280;27623;51.966;4.602;2023-01-16T13:25:21;63876.84;;;6.10;100.00
41636;BME280;27623;51.966;4.602;2023-01-16T13:28:00;63894.19;;;6.12;100.00
41636;BME280;27623;51.966;4.602;2023-01-16T13:30:26;63878.66;;;6.14;100.00
41636;BME280;27623;51.966;4.602;2023-01-16T13:32:56;63874.16;;;6.14;100.00
41636;BME280;27623;51.966;4.602;2023-01-16T13:35:33;63916.56;;;6.07;100.00
41636;BME280;27623;51.966;4.602;2023-01-16T13:46:29;63884.63;;;6.19;100.00
41636;BME280;27623;51.966;4.602;2023-01-16T13:48:59;63903.75;;;6.11;100.00
41636;BME280;27623;51.966;4.602;2023-01-16T13:51:28;63920.59;;;6.20;100.00
41636;BME280;27623;51.966;4.602;2023-01-16T13:54:01;63868.00;;;6.13;100.00
41636;BME280;27623;51.966;4.602;2023-01-16T13:56:31;63904.88;;;6.19;100.00
41636;BME280;27623;51.966;4.602;2023-01-16T13:59:04;63915.50;;;6.13;100.00
41636;BME280;27623;51.966;4.602;2023-01-16T14:01:36;63918.75;;;6.09;100.00
41636;BME280;27623;51.966;4.602;2023-01-16T14:06:59;63902.16;;;6.24;100.00
41636;BME280;27623;51.966;4.602;2023-01-16T14:15:49;63942.69;;;6.38;100.00
41636;BME280;27623;51.966;4.602;2023-01-16T14:21:44;63941.56;;;6.23;100.00
41636;BME280;27623;51.966;4.602;2023-01-16T14:24:45;63921.31;;;6.16;100.00
41636;BME280;27623;51.966;4.602;2023-01-16T14:27:14;63883.16;;;6.06;100.00
41636;BME280;27623;51.966;4.602;2023-01-16T14:29:56;63875.97;;;6.26;100.00
41636;BME280;27623;51.966;4.602;2023-01-16T14:32:27;63897.06;;;6.10;100.00
41636;BME280;27623;51.966;4.602;2023-01-16T14:37:28;63890.03;;;6.10;100.00
41636;BME280;27623;51.966;4.602;2023-01-16T14:40:01;63881.34;;;6.02;100.00
41636;BME280;27623;51.966;4.602;2023-01-16T14:42:31;63855.00;;;6.15;100.00
41636;BME280;27623;51.966;4.602;2023-01-16T14:45:40;63890.94;;;6.09;100.00
41636;BME280;27623;51.966;4.602;2023-01-16T14:51:13;63890.56;;;6.11;100.00
41636;BME280;27623;51.966;4.602;2023-01-16T14:56:57;63898.00;;;6.15;100.00
41636;BME280;27623;51.966;4.602;2023-01-16T14:59:31;63910.47;;;6.13;100.00
41636;BME280;27623;51.966;4.602;2023-01-16T15:02:19;63898.91;;;6.14;100.00
41636;BME280;27623;51.966;4.602;2023-01-16T15:05:04;63884.63;;;6.12;100.00
41636;BME280;27623;51.966;4.602;2023-01-16T15:07:40;63874.34;;;6.17;100.00
41636;BME280;27623;51.966;4.602;2023-01-16T15:10:18;63916.09;;;6.28;100.00
41636;BME280;27623;51.966;4.602;2023-01-16T15:12:45;63923.69;;;6.35;100.00